createdAt,value
2019-05-05T00:02:44.775Z,6.87
2019-05-05T00:05:26.746Z,5.47
2019-05-05T00:07:57.843Z,4.60
2019-05-05T00:11:05.095Z,6.57
2019-05-05T00:13:57.235Z,5.50
2019-05-05T00:16:50.505Z,7.37
2019-05-05T00:19:32.200Z,7.03
2019-05-05T00:21:55.187Z,8.30
2019-05-05T00:24:26.303Z,15.57
2019-05-05T00:26:57.661Z,7.37
2019-05-05T00:29:28.896Z,12.03
2019-05-05T00:32:00.154Z,8.70
2019-05-05T00:34:31.272Z,8.97
2019-05-05T00:37:04.666Z,9.30
2019-05-05T00:39:35.375Z,8.53
2019-05-05T00:42:06.762Z,8.60
2019-05-05T00:44:37.794Z,8.83
2019-05-05T00:47:26.867Z,8.97
2019-05-05T00:49:57.883Z,8.30
2019-05-05T00:52:29.164Z,11.37
2019-05-05T00:55:00.229Z,10.33
2019-05-05T00:57:31.573Z,10.17
2019-05-05T01:00:04.959Z,12.57
2019-05-05T01:02:44.907Z,10.70
2019-05-05T01:05:34.773Z,8.57
2019-05-05T01:08:09.171Z,8.10
2019-05-05T01:10:40.276Z,13.70
2019-05-05T01:13:12.111Z,7.40
2019-05-05T01:15:44.850Z,10.70
2019-05-05T01:18:16.409Z,9.53
2019-05-05T01:20:47.651Z,15.80
2019-05-05T01:23:18.959Z,8.10
2019-05-05T01:25:50.003Z,10.00
2019-05-05T01:28:21.339Z,14.83
2019-05-05T01:30:55.030Z,11.13
2019-05-05T01:33:40.833Z,8.93
2019-05-05T01:36:11.922Z,9.77
2019-05-05T01:38:48.646Z,10.20
2019-05-05T01:41:29.510Z,10.77
2019-05-05T01:44:00.971Z,10.07
2019-05-05T01:46:32.095Z,11.57
2019-05-05T01:49:05.284Z,9.00
2019-05-05T01:51:36.109Z,12.33
2019-05-05T01:54:08.424Z,14.90
2019-05-05T01:56:40.241Z,11.57
2019-05-05T01:59:11.538Z,20.17
2019-05-05T02:01:44.481Z,15.43
2019-05-05T02:04:15.669Z,10.10
2019-05-05T02:06:46.853Z,11.43
2019-05-05T02:09:18.259Z,20.10
2019-05-05T02:11:49.277Z,13.60
2019-05-05T02:14:20.553Z,12.80
2019-05-05T02:16:51.597Z,14.30
2019-05-05T02:19:24.904Z,17.70
2019-05-05T02:21:55.967Z,11.10
2019-05-05T02:24:27.285Z,13.93
2019-05-05T02:26:58.338Z,13.70
2019-05-05T02:29:35.512Z,14.57
2019-05-05T02:32:37.889Z,13.57
2019-05-05T02:35:15.895Z,14.07
2019-05-05T02:37:46.074Z,14.37
2019-05-05T02:40:18.389Z,18.50
2019-05-05T02:42:50.722Z,12.67
2019-05-05T02:45:44.110Z,13.13
2019-05-05T02:48:16.101Z,21.27
2019-05-05T02:51:02.631Z,14.03
2019-05-05T02:53:44.821Z,13.70
2019-05-05T02:56:25.061Z,16.57
2019-05-05T02:59:00.519Z,19.87
2019-05-05T03:01:54.593Z,18.43
2019-05-05T03:04:26.423Z,20.83
2019-05-05T03:06:59.761Z,23.83
2019-05-05T03:09:31.950Z,19.30
2019-05-05T03:12:05.162Z,19.40
2019-05-05T03:14:38.365Z,20.20
2019-05-05T03:17:14.373Z,24.70
2019-05-05T03:19:45.845Z,19.30
2019-05-05T03:22:17.371Z,19.37
2019-05-05T03:24:49.020Z,18.50
2019-05-05T03:27:23.608Z,21.93
2019-05-05T03:29:54.230Z,27.93
2019-05-05T03:32:25.836Z,20.47
2019-05-05T03:34:57.012Z,16.87
2019-05-05T03:37:28.329Z,19.63
2019-05-05T03:40:06.807Z,17.20
2019-05-05T03:42:48.247Z,21.80
2019-05-05T03:45:37.781Z,19.47
2019-05-05T03:48:09.157Z,14.73
2019-05-05T03:50:40.305Z,16.90
2019-05-05T03:53:14.008Z,16.50
2019-05-05T03:55:45.469Z,15.90
2019-05-05T03:58:16.915Z,15.27
2019-05-05T04:01:27.588Z,23.80
2019-05-05T04:04:17.802Z,16.33
2019-05-05T04:07:00.216Z,16.67
2019-05-05T04:09:31.640Z,19.30
2019-05-05T04:12:04.433Z,20.07
2019-05-05T04:14:35.672Z,16.53
2019-05-05T04:17:14.198Z,20.03
2019-05-05T04:19:48.047Z,18.10
2019-05-05T04:22:19.079Z,17.23
2019-05-05T04:24:50.686Z,15.37
2019-05-05T04:27:23.734Z,18.20
2019-05-05T04:29:54.723Z,17.10
2019-05-05T04:32:25.924Z,17.10
2019-05-05T04:34:57.322Z,15.77
2019-05-05T04:37:28.466Z,15.67
2019-05-05T04:40:00.139Z,15.43
2019-05-05T04:42:31.188Z,17.53
2019-05-05T04:45:04.252Z,17.20
2019-05-05T04:47:37.261Z,18.17
2019-05-05T04:50:18.675Z,17.50
2019-05-05T04:52:50.596Z,15.23
2019-05-05T04:55:24.338Z,17.67
2019-05-05T04:57:54.985Z,17.50
2019-05-05T05:00:26.170Z,14.17
2019-05-05T05:03:16.135Z,14.50
2019-05-05T05:05:59.499Z,18.00
2019-05-05T05:08:30.537Z,17.00
2019-05-05T05:11:03.612Z,16.80
2019-05-05T05:13:34.863Z,15.27
2019-05-05T05:16:07.323Z,13.60
2019-05-05T05:18:38.383Z,13.17
2019-05-05T05:21:09.743Z,13.93
2019-05-05T05:23:40.791Z,15.60
2019-05-05T05:26:13.919Z,15.43
2019-05-05T05:28:44.938Z,13.03
2019-05-05T05:31:16.272Z,13.80
2019-05-05T05:33:47.317Z,13.90
2019-05-05T05:36:18.563Z,15.97
2019-05-05T05:38:53.701Z,16.90
2019-05-05T05:41:44.197Z,15.40
2019-05-05T05:44:33.878Z,14.47
2019-05-05T05:47:19.461Z,15.27
2019-05-05T05:50:09.447Z,16.70
2019-05-05T05:52:40.691Z,19.60
2019-05-05T05:55:11.852Z,14.33
2019-05-05T05:57:43.914Z,15.90
2019-05-05T06:00:15.889Z,16.37
2019-05-05T06:02:47.421Z,13.53
2019-05-05T06:05:18.475Z,12.23
2019-05-05T06:07:50.224Z,14.77
2019-05-05T06:10:27.067Z,13.67
2019-05-05T06:12:56.236Z,14.27
2019-05-05T06:15:27.321Z,15.40
2019-05-05T06:17:58.695Z,14.90
2019-05-05T06:20:29.747Z,16.70
2019-05-05T06:23:14.523Z,14.90
2019-05-05T06:25:45.313Z,14.30
2019-05-05T06:28:17.726Z,16.30
2019-05-05T06:30:48.763Z,15.20
2019-05-05T06:33:20.001Z,16.63
2019-05-05T06:35:51.134Z,17.67
2019-05-05T06:38:24.193Z,15.13
2019-05-05T06:41:09.870Z,15.73
2019-05-05T06:44:05.843Z,18.50
2019-05-05T06:46:54.937Z,15.80
2019-05-05T06:49:25.994Z,15.63
2019-05-05T06:51:57.411Z,14.27
2019-05-05T06:54:28.514Z,16.53
2019-05-05T06:56:59.743Z,16.33
2019-05-05T06:59:30.779Z,13.67
2019-05-05T07:02:04.203Z,14.73
2019-05-05T07:04:35.225Z,14.93
2019-05-05T07:07:06.452Z,13.40
2019-05-05T07:09:37.524Z,11.23
2019-05-05T07:12:08.819Z,12.80
2019-05-05T07:14:39.889Z,13.80
2019-05-05T07:17:11.209Z,16.30
2019-05-05T07:19:44.710Z,12.00
2019-05-05T07:22:17.698Z,14.33
2019-05-05T07:24:48.293Z,13.23
2019-05-05T07:27:19.585Z,13.33
2019-05-05T07:29:50.631Z,14.60
2019-05-05T07:32:23.963Z,12.53
2019-05-05T07:35:19.677Z,14.80
2019-05-05T07:37:51.028Z,11.90
2019-05-05T07:40:24.029Z,15.80
2019-05-05T07:42:56.259Z,14.40
2019-05-05T07:45:48.120Z,16.07
2019-05-05T07:48:19.486Z,13.50
2019-05-05T07:50:59.804Z,14.60
2019-05-05T07:53:25.103Z,12.93
2019-05-05T07:55:56.349Z,13.60
2019-05-05T07:58:27.539Z,11.70
2019-05-05T08:00:59.028Z,12.87
2019-05-05T08:03:30.679Z,13.70
2019-05-05T08:06:03.862Z,12.30
2019-05-05T08:08:34.935Z,12.10
2019-05-05T08:11:06.350Z,12.50
2019-05-05T08:13:37.840Z,12.13
2019-05-05T08:16:17.302Z,10.90
2019-05-05T08:19:06.548Z,14.67
2019-05-05T08:21:37.935Z,11.17
2019-05-05T08:27:24.898Z,13.37
2019-05-05T08:30:02.216Z,11.63
2019-05-05T08:32:36.368Z,10.27
2019-05-05T08:35:28.201Z,12.30
2019-05-05T08:37:59.627Z,13.07
2019-05-05T08:40:30.703Z,10.20
2019-05-05T08:43:04.358Z,11.20
2019-05-05T08:45:35.294Z,12.73
2019-05-05T08:48:08.095Z,10.40
2019-05-05T08:50:39.408Z,8.60
2019-05-05T08:53:10.942Z,11.80
2019-05-05T08:55:44.418Z,9.93
2019-05-05T08:58:16.248Z,11.27
2019-05-05T09:00:47.634Z,9.00
2019-05-05T09:03:19.274Z,8.37
2019-05-05T09:05:50.326Z,8.60
2019-05-05T09:08:21.557Z,8.53
2019-05-05T09:10:55.043Z,7.93
2019-05-05T09:13:25.489Z,10.67
2019-05-05T09:15:56.556Z,7.80
2019-05-05T09:18:58.090Z,7.37
2019-05-05T09:21:29.389Z,6.47
2019-05-05T09:24:16.915Z,6.33
2019-05-05T09:26:56.216Z,6.10
2019-05-05T09:29:35.009Z,6.20
2019-05-05T09:32:06.195Z,6.37
2019-05-05T09:34:37.621Z,7.93
2019-05-05T09:37:09.331Z,6.30
2019-05-05T09:39:40.567Z,5.10
2019-05-05T09:42:11.614Z,5.13
2019-05-05T09:44:43.782Z,6.13
2019-05-05T09:47:15.297Z,4.73
2019-05-05T09:49:46.515Z,8.30
2019-05-05T09:52:17.850Z,6.13
2019-05-05T09:54:49.128Z,4.50
2019-05-05T09:57:20.171Z,4.47
2019-05-05T10:00:13.976Z,4.33
2019-05-05T10:02:45.412Z,5.03
2019-05-05T10:05:17.478Z,6.33
2019-05-05T10:07:48.677Z,5.97
2019-05-05T10:10:20.469Z,3.57
2019-05-05T10:12:52.962Z,3.57
2019-05-05T10:15:25.118Z,6.80
2019-05-05T10:17:56.296Z,4.97
2019-05-05T10:20:27.733Z,4.13
2019-05-05T10:22:58.997Z,6.30
2019-05-05T10:25:59.104Z,3.50
2019-05-05T10:28:30.259Z,3.53
2019-05-05T10:31:01.683Z,4.13
2019-05-05T10:33:36.275Z,5.50
2019-05-05T10:36:06.527Z,3.57
2019-05-05T10:38:39.859Z,4.93
2019-05-05T10:41:11.174Z,3.50
2019-05-05T10:43:43.740Z,3.60
2019-05-05T10:46:16.376Z,3.43
2019-05-05T10:48:47.403Z,5.83
2019-05-05T10:51:18.649Z,4.63
2019-05-05T10:53:49.765Z,3.70
2019-05-05T10:56:40.474Z,3.80
2019-05-05T10:59:11.542Z,5.27
2019-05-05T11:01:42.984Z,5.53
2019-05-05T11:04:14.346Z,4.10
2019-05-05T11:06:45.970Z,4.47
2019-05-05T11:09:17.186Z,3.50
2019-05-05T11:11:48.715Z,3.23
2019-05-05T11:14:19.836Z,4.67
2019-05-05T11:16:51.284Z,3.43
2019-05-05T11:19:24.129Z,3.07
2019-05-05T11:21:56.046Z,2.83
2019-05-05T11:24:27.146Z,3.70
2019-05-05T11:26:58.730Z,3.43
2019-05-05T11:29:29.757Z,3.90
2019-05-05T11:32:03.634Z,6.13
2019-05-05T11:34:34.812Z,10.80
2019-05-05T11:37:15.685Z,3.13
2019-05-05T11:39:46.910Z,5.93
2019-05-05T11:42:18.261Z,3.80
2019-05-05T11:44:49.370Z,2.93
2019-05-05T11:47:20.674Z,3.77
2019-05-05T11:49:54.591Z,3.10
2019-05-05T11:52:25.009Z,3.00
2019-05-05T11:55:08.876Z,3.33
2019-05-05T11:57:29.588Z,3.27
2019-05-05T12:00:00.729Z,3.00
2019-05-05T12:02:33.482Z,3.13
2019-05-05T12:05:17.012Z,2.90
2019-05-05T12:07:48.471Z,3.30
2019-05-05T12:10:38.455Z,3.00
2019-05-05T12:13:11.346Z,3.17
2019-05-05T12:15:45.187Z,2.57
2019-05-05T12:18:16.645Z,3.50
2019-05-05T12:20:47.786Z,3.20
2019-05-05T12:23:19.762Z,3.67
2019-05-05T12:26:13.721Z,3.00
2019-05-05T12:28:57.453Z,3.50
2019-05-05T12:31:29.849Z,2.87
2019-05-05T12:34:01.049Z,3.33
2019-05-05T12:36:34.033Z,2.77
2019-05-05T12:42:04.871Z,4.93
2019-05-05T12:44:54.149Z,3.17
2019-05-05T12:47:34.276Z,3.03
2019-05-05T12:50:06.029Z,2.37
2019-05-05T12:52:37.585Z,3.07
2019-05-05T12:55:08.725Z,3.10
2019-05-05T12:57:40.144Z,2.67
2019-05-05T13:00:14.625Z,7.60
2019-05-05T13:02:46.729Z,3.40
2019-05-05T13:05:18.116Z,5.37
2019-05-05T13:07:49.630Z,3.20
2019-05-05T13:10:24.397Z,3.30
2019-05-05T13:12:55.613Z,7.90
2019-05-05T13:15:26.956Z,2.77
2019-05-05T13:17:58.203Z,2.67
2019-05-05T13:20:35.251Z,2.80
2019-05-05T13:23:31.317Z,2.93
2019-05-05T13:26:37.724Z,3.13
2019-05-05T13:29:10.067Z,6.00
2019-05-05T13:31:41.208Z,3.07
2019-05-05T13:34:13.661Z,2.93
2019-05-05T13:36:46.260Z,3.30
2019-05-05T13:39:36.770Z,5.07
2019-05-05T13:42:08.021Z,7.30
2019-05-05T13:45:07.520Z,3.60
2019-05-05T13:47:38.772Z,2.53
2019-05-05T13:50:15.147Z,2.70
2019-05-05T13:52:46.268Z,4.00
2019-05-05T13:55:17.938Z,6.13
2019-05-05T13:57:49.211Z,3.30
2019-05-05T14:00:20.842Z,3.60
2019-05-05T14:02:54.370Z,2.77
2019-05-05T14:05:25.376Z,2.90
2019-05-05T14:07:57.840Z,5.63
2019-05-05T14:10:29.308Z,2.47
2019-05-05T14:13:00.668Z,2.63
2019-05-05T14:15:34.153Z,2.73
2019-05-05T14:18:05.764Z,3.93
2019-05-05T14:20:37.370Z,2.63
2019-05-05T14:23:08.620Z,10.60
2019-05-05T14:25:39.962Z,2.80
2019-05-05T14:28:11.103Z,3.33
2019-05-05T14:31:01.502Z,2.30
2019-05-05T14:33:49.874Z,2.27
2019-05-05T14:36:44.131Z,2.63
2019-05-05T14:39:16.464Z,2.20
2019-05-05T14:41:47.674Z,2.67
2019-05-05T14:44:18.760Z,2.57
2019-05-05T14:46:49.950Z,2.30
2019-05-05T14:49:20.990Z,5.93
2019-05-05T14:51:53.815Z,2.50
2019-05-05T14:54:25.434Z,2.30
2019-05-05T14:56:56.791Z,2.40
2019-05-05T14:59:27.970Z,2.63
2019-05-05T15:01:59.890Z,6.80
2019-05-05T15:04:34.367Z,2.60
2019-05-05T15:07:33.979Z,2.20
2019-05-05T15:10:24.055Z,6.30
2019-05-05T15:12:58.906Z,3.20
2019-05-05T15:15:30.025Z,2.47
2019-05-05T15:18:01.358Z,2.33
2019-05-05T15:20:33.795Z,2.63
2019-05-05T15:23:05.547Z,3.03
2019-05-05T15:25:36.668Z,3.00
2019-05-05T15:28:08.276Z,2.10
2019-05-05T15:30:39.344Z,3.00
2019-05-05T15:33:10.766Z,2.40
2019-05-05T15:35:45.894Z,2.43
2019-05-05T15:38:15.108Z,4.83
2019-05-05T15:40:48.022Z,2.53
2019-05-05T15:43:19.336Z,2.70
2019-05-05T15:45:50.780Z,2.23
2019-05-05T15:48:22.364Z,2.40
2019-05-05T15:50:54.624Z,2.90
2019-05-05T15:53:26.175Z,2.50
2019-05-05T15:55:57.396Z,2.37
2019-05-05T15:58:28.972Z,3.07
2019-05-05T16:01:00.130Z,2.30
2019-05-05T16:03:31.362Z,2.50
2019-05-05T16:06:03.790Z,2.50
2019-05-05T16:08:35.697Z,2.03
2019-05-05T16:11:06.725Z,3.63
2019-05-05T16:13:38.114Z,2.77
2019-05-05T16:16:34.248Z,2.40
2019-05-05T16:19:13.913Z,2.60
2019-05-05T16:21:50.059Z,3.07
2019-05-05T16:24:27.221Z,4.50
2019-05-05T16:26:58.352Z,2.27
2019-05-05T16:29:29.614Z,1.90
2019-05-05T16:32:00.710Z,2.60
2019-05-05T16:34:33.705Z,2.43
2019-05-05T16:37:05.147Z,4.67
2019-05-05T16:39:36.439Z,2.30
2019-05-05T16:42:07.738Z,2.43
2019-05-05T16:44:38.936Z,2.47
2019-05-05T16:47:10.076Z,2.63
2019-05-05T16:49:41.328Z,2.83
2019-05-05T16:52:23.859Z,2.33
2019-05-05T16:55:08.856Z,2.40
2019-05-05T16:57:39.975Z,2.33
2019-05-05T17:00:11.881Z,1.80
2019-05-05T17:02:44.460Z,3.77
2019-05-05T17:05:16.570Z,2.47
2019-05-05T17:07:47.625Z,2.93
2019-05-05T17:10:18.962Z,3.27
2019-05-05T17:12:50.441Z,4.03
2019-05-05T17:15:39.476Z,4.13
2019-05-05T17:18:33.632Z,2.63
2019-05-05T17:21:16.888Z,2.60
2019-05-05T17:23:48.285Z,2.40
2019-05-05T17:26:20.108Z,2.17
2019-05-05T17:28:51.544Z,2.47
2019-05-05T17:31:24.363Z,2.40
2019-05-05T17:33:55.537Z,2.20
2019-05-05T17:36:27.028Z,7.83
2019-05-05T17:38:58.351Z,2.23
2019-05-05T17:41:48.824Z,2.30
2019-05-05T17:44:54.886Z,2.90
2019-05-05T17:47:39.880Z,2.73
2019-05-05T17:50:16.334Z,3.13
2019-05-05T17:53:10.470Z,2.43
2019-05-05T17:55:44.341Z,2.50
2019-05-05T17:58:15.726Z,1.93
2019-05-05T18:00:54.589Z,2.30
2019-05-05T18:03:26.004Z,3.27
2019-05-05T18:06:25.360Z,2.53
2019-05-05T18:09:00.652Z,2.50
2019-05-05T18:11:55.731Z,4.50
2019-05-05T18:14:28.341Z,6.80
2019-05-05T18:16:59.410Z,5.70
2019-05-05T18:19:31.126Z,2.63
2019-05-05T18:22:02.232Z,3.10
2019-05-05T18:24:33.784Z,2.87
2019-05-05T18:27:04.828Z,2.40
2019-05-05T18:29:36.128Z,2.60
2019-05-05T18:32:07.242Z,3.50
2019-05-05T18:34:38.618Z,2.30
2019-05-05T18:37:09.692Z,2.30
2019-05-05T18:39:41.416Z,2.33
2019-05-05T18:42:24.538Z,5.00
2019-05-05T18:45:05.412Z,3.63
2019-05-05T18:47:36.608Z,3.27
2019-05-05T18:50:08.696Z,3.33
2019-05-05T18:52:40.219Z,3.03
2019-05-05T18:55:11.554Z,3.00
2019-05-05T18:57:43.476Z,2.63
2019-05-05T19:00:16.702Z,2.80
2019-05-05T19:03:17.698Z,4.27
2019-05-05T19:05:55.326Z,2.80
2019-05-05T19:08:29.390Z,6.10
2019-05-05T19:11:00.902Z,3.37
2019-05-05T19:13:33.942Z,3.00
2019-05-05T19:16:05.157Z,3.83
2019-05-05T19:18:36.482Z,4.63
2019-05-05T19:21:15.562Z,4.20
2019-05-05T19:23:46.675Z,3.33
2019-05-05T19:26:17.919Z,5.17
2019-05-05T19:28:50.431Z,2.73
2019-05-05T19:31:22.038Z,5.33
2019-05-05T19:33:55.716Z,2.80
2019-05-05T19:36:27.533Z,4.57
2019-05-05T19:38:59.796Z,5.20
2019-05-05T19:41:30.942Z,2.80
2019-05-05T19:44:04.703Z,6.17
2019-05-05T19:46:51.852Z,2.70
2019-05-05T19:49:45.644Z,3.73
2019-05-05T19:52:10.331Z,4.37
2019-05-05T19:54:45.129Z,9.30
2019-05-05T19:57:14.758Z,2.90
2019-05-05T19:59:45.874Z,3.27
2019-05-05T20:02:17.270Z,3.70
2019-05-05T20:04:48.386Z,4.00
2019-05-05T20:07:19.677Z,7.50
2019-05-05T20:09:50.826Z,3.53
2019-05-05T20:12:22.285Z,3.80
2019-05-05T20:14:54.454Z,3.70
2019-05-05T20:17:36.361Z,5.83
2019-05-05T20:20:09.191Z,3.77
2019-05-05T20:22:40.538Z,3.27
2019-05-05T20:25:14.020Z,3.23
2019-05-05T20:27:45.506Z,3.33
2019-05-05T20:30:17.120Z,3.27
2019-05-05T20:32:59.966Z,4.13
2019-05-05T20:35:43.575Z,12.60
2019-05-05T20:38:34.104Z,5.80
2019-05-05T20:41:14.192Z,3.40
2019-05-05T20:43:46.298Z,3.40
2019-05-05T20:46:17.453Z,4.37
2019-05-05T20:48:49.343Z,3.30
2019-05-05T20:51:20.590Z,3.53
2019-05-05T20:53:54.086Z,7.40
2019-05-05T20:56:24.958Z,4.00
2019-05-05T20:58:56.259Z,4.23
2019-05-05T21:01:27.346Z,4.57
2019-05-05T21:03:59.498Z,5.57
2019-05-05T21:06:30.664Z,5.40
2019-05-05T21:09:04.199Z,4.33
2019-05-05T21:11:36.878Z,3.63
2019-05-05T21:14:08.258Z,3.80
2019-05-05T21:16:39.460Z,3.40
2019-05-05T21:19:10.756Z,5.37
2019-05-05T21:24:26.760Z,4.83
2019-05-05T21:27:09.916Z,3.93
2019-05-05T21:29:42.488Z,5.50
2019-05-05T21:32:13.905Z,5.83
2019-05-05T21:34:45.678Z,6.00
2019-05-05T21:37:16.796Z,5.13
2019-05-05T21:39:48.168Z,9.63
2019-05-05T21:42:19.516Z,5.40
2019-05-05T21:44:50.870Z,6.77
2019-05-05T21:47:23.946Z,4.97
2019-05-05T21:49:55.833Z,4.80
2019-05-05T21:52:34.662Z,4.80
2019-05-05T21:55:31.504Z,6.00
2019-05-05T21:58:10.941Z,4.73
2019-05-05T22:01:04.601Z,4.73
2019-05-05T22:03:38.623Z,4.87
2019-05-05T22:06:10.032Z,5.80
2019-05-05T22:08:41.533Z,5.40
2019-05-05T22:11:14.636Z,5.33
2019-05-05T22:13:46.382Z,5.50
2019-05-05T22:16:17.459Z,6.57
2019-05-05T22:18:48.870Z,4.30
2019-05-05T22:21:35.667Z,4.50
2019-05-05T22:24:17.184Z,4.77
2019-05-05T22:26:48.314Z,8.63
2019-05-05T22:29:19.859Z,5.80
2019-05-05T22:31:50.990Z,5.73
2019-05-05T22:34:24.076Z,8.77
2019-05-05T22:36:55.050Z,5.43
2019-05-05T22:39:26.390Z,4.90
2019-05-05T22:41:57.476Z,5.07
2019-05-05T22:44:28.784Z,11.60
2019-05-05T22:46:59.908Z,7.10
2019-05-05T22:49:31.178Z,10.03
2019-05-05T22:52:03.823Z,5.17
2019-05-05T22:54:47.127Z,7.50
2019-05-05T22:57:18.250Z,4.70
2019-05-05T22:59:49.578Z,4.43
2019-05-05T23:02:24.455Z,8.13
2019-05-05T23:05:04.468Z,5.87
2019-05-05T23:07:35.664Z,5.37
2019-05-05T23:10:07.381Z,5.57
2019-05-05T23:12:38.686Z,7.17
2019-05-05T23:15:25.428Z,6.60
2019-05-05T23:18:05.126Z,5.70
2019-05-05T23:21:15.976Z,5.90
2019-05-05T23:24:05.504Z,7.13
2019-05-05T23:26:39.339Z,9.00
2019-05-05T23:29:10.616Z,7.37
2019-05-05T23:31:44.291Z,5.23
2019-05-05T23:34:14.919Z,5.83
2019-05-05T23:36:46.574Z,5.27
2019-05-05T23:39:17.644Z,6.23
2019-05-05T23:41:48.971Z,5.67
2019-05-05T23:44:20.367Z,5.63
2019-05-05T23:46:53.764Z,5.33
2019-05-05T23:49:24.948Z,6.93
2019-05-05T23:51:56.306Z,5.87
2019-05-05T23:54:27.387Z,6.70
2019-05-05T23:56:58.804Z,6.83
2019-05-05T23:59:30.361Z,7.53
